Airport View

Enter AWOS ICAO identifier for current METAR.

KFNL for example

KLHM 221135Z AUTO 15006KT 10SM SCT110 14/05 A2987 RMK AO1

22 Sep 2017 11:43

Frequency: 124.25

Phone: 916-645-0698

Other Area AWOS: KAUN - KBAB - KMCC - KMYV

TAF KBAB 220304Z 2203/2309 VRB06KT 9999 SCT060 BKN090 QNH2980INS BECMG 2217/2218 34009KT 9999 FEW050 FEW150 QNH2984INS TEMPO 2223/2302 33012KT BECMG 2302/2303 VRB06KT 9999 SKC QNH2986INS TX22/2223Z TN11/2212Z